createdAt,value
2023-04-18T00:02:30.683Z,57.70
2023-04-18T00:05:25.018Z,58.70
2023-04-18T00:08:19.262Z,60.00
2023-04-18T00:11:13.546Z,60.20
2023-04-18T00:14:07.708Z,60.50
2023-04-18T00:17:03.675Z,61.20
2023-04-18T00:19:59.483Z,61.80
2023-04-18T00:22:54.571Z,62.60
2023-04-18T00:25:49.259Z,63.80
2023-04-18T00:28:43.511Z,63.50
2023-04-18T00:31:37.879Z,63.60
2023-04-18T00:34:32.194Z,63.80
2023-04-18T00:37:26.385Z,63.80
2023-04-18T00:40:20.598Z,64.20
2023-04-18T00:43:18.631Z,64.70
2023-04-18T00:46:12.829Z,64.10
2023-04-18T00:49:07.059Z,64.20
2023-04-18T00:52:01.877Z,64.20
2023-04-18T00:54:56.842Z,63.80
2023-04-18T00:57:51.185Z,64.60
2023-04-18T01:00:45.944Z,64.70
2023-04-18T01:03:40.880Z,64.10
2023-04-18T01:06:35.395Z,64.20
2023-04-18T01:09:29.905Z,64.20
2023-04-18T01:12:24.012Z,64.40
2023-04-18T01:15:18.208Z,64.00
2023-04-18T01:18:13.019Z,64.10
2023-04-18T01:21:07.792Z,65.00
2023-04-18T01:24:22.801Z,63.60
2023-04-18T01:27:16.991Z,64.90
2023-04-18T01:30:11.848Z,64.80
2023-04-18T01:33:07.454Z,64.30
2023-04-18T01:36:01.793Z,64.30
2023-04-18T01:38:56.048Z,64.20
2023-04-18T01:41:50.184Z,64.20
2023-04-18T01:44:44.478Z,64.30
2023-04-18T01:47:38.632Z,63.50
2023-04-18T01:50:33.084Z,63.80
2023-04-18T01:53:27.174Z,63.10
2023-04-18T01:56:22.193Z,63.20
2023-04-18T01:59:16.351Z,63.70
2023-04-18T02:02:12.372Z,62.90
2023-04-18T02:05:06.840Z,63.40
2023-04-18T02:08:01.028Z,63.50
2023-04-18T02:10:55.218Z,63.50
2023-04-18T02:13:49.903Z,64.60
2023-04-18T02:16:44.122Z,63.80
2023-04-18T02:19:38.481Z,63.80
2023-04-18T02:22:32.700Z,63.80
2023-04-18T02:25:28.859Z,63.30
2023-04-18T02:28:23.002Z,62.20
2023-04-18T02:31:17.456Z,63.50
2023-04-18T02:34:12.044Z,64.00
2023-04-18T02:37:06.641Z,63.40
2023-04-18T02:40:00.723Z,63.20
2023-04-18T02:42:54.919Z,63.20
2023-04-18T02:45:49.216Z,62.30
2023-04-18T02:48:43.449Z,62.40
2023-04-18T02:51:37.619Z,62.60
2023-04-18T02:54:31.723Z,62.70
2023-04-18T02:57:25.921Z,62.40
2023-04-18T03:00:20.920Z,61.70
2023-04-18T03:03:15.082Z,60.70
2023-04-18T03:06:09.322Z,60.00
2023-04-18T03:09:04.532Z,59.90
2023-04-18T03:11:58.727Z,60.00
2023-04-18T03:14:52.974Z,59.60
2023-04-18T03:17:47.160Z,59.40
2023-04-18T03:20:42.128Z,59.70
2023-04-18T03:23:36.309Z,59.80
2023-04-18T03:26:30.649Z,57.90
2023-04-18T03:29:24.783Z,58.10
2023-04-18T03:32:19.634Z,58.00
2023-04-18T03:35:13.958Z,58.00
2023-04-18T03:38:08.200Z,58.00
2023-04-18T03:41:02.410Z,58.30
2023-04-18T03:43:56.526Z,56.50
2023-04-18T03:46:50.725Z,56.20
2023-04-18T03:49:44.992Z,56.80
2023-04-18T03:52:39.171Z,57.30
2023-04-18T03:55:33.500Z,56.70
2023-04-18T03:58:27.606Z,57.30
2023-04-18T04:01:21.966Z,58.00
2023-04-18T04:04:16.681Z,57.80
2023-04-18T04:07:11.031Z,57.80
2023-04-18T04:10:05.354Z,57.80
2023-04-18T04:12:59.529Z,58.60
2023-04-18T04:15:54.427Z,58.50
2023-04-18T04:18:48.603Z,58.20
2023-04-18T04:21:43.358Z,58.10
2023-04-18T04:24:39.750Z,58.00
2023-04-18T04:27:35.245Z,58.20
2023-04-18T04:30:29.887Z,58.00
2023-04-18T04:33:29.841Z,57.90
2023-04-18T04:36:25.872Z,58.10
2023-04-18T04:39:20.023Z,58.00
2023-04-18T04:42:14.629Z,57.90
2023-04-18T04:45:10.727Z,58.00
2023-04-18T04:48:05.125Z,58.50
2023-04-18T04:51:00.925Z,57.90
2023-04-18T04:53:55.121Z,57.60
2023-04-18T04:56:49.478Z,57.70
2023-04-18T04:59:43.784Z,57.60
2023-04-18T05:02:38.200Z,58.00
2023-04-18T05:05:32.772Z,57.30
2023-04-18T05:08:27.483Z,57.70
2023-04-18T05:11:22.256Z,57.20
2023-04-18T05:14:16.916Z,57.30
2023-04-18T05:17:11.103Z,56.90
2023-04-18T05:20:06.117Z,57.20
2023-04-18T05:23:00.257Z,56.80
2023-04-18T05:25:54.980Z,57.30
2023-04-18T05:28:49.471Z,57.10
2023-04-18T05:31:43.688Z,57.30
2023-04-18T05:34:38.915Z,56.90
2023-04-18T05:37:33.216Z,56.20
2023-04-18T05:40:28.682Z,56.60
2023-04-18T05:43:23.148Z,57.10
2023-04-18T05:46:17.338Z,56.60
2023-04-18T05:49:11.601Z,56.90
2023-04-18T05:52:05.971Z,57.40
2023-04-18T05:55:00.167Z,57.40
2023-04-18T05:57:54.353Z,56.70
2023-04-18T06:00:49.486Z,56.50
2023-04-18T06:03:43.901Z,56.80
2023-04-18T06:06:38.504Z,56.60
2023-04-18T06:09:32.706Z,56.00
2023-04-18T06:12:27.139Z,56.20
2023-04-18T06:15:21.392Z,56.10
2023-04-18T06:18:15.597Z,55.50
2023-04-18T06:21:09.895Z,56.00
2023-04-18T06:24:04.116Z,55.60
2023-04-18T06:26:58.692Z,55.20
2023-04-18T06:29:52.926Z,55.20
2023-04-18T06:32:47.140Z,55.60
2023-04-18T06:35:41.536Z,55.60
2023-04-18T06:38:36.098Z,56.10
2023-04-18T06:41:30.272Z,56.00
2023-04-18T06:44:24.461Z,56.10
2023-04-18T06:47:18.926Z,56.50
2023-04-18T06:50:13.155Z,56.90
2023-04-18T06:53:07.375Z,57.40
2023-04-18T06:56:01.770Z,57.40
2023-04-18T06:58:55.969Z,57.80
2023-04-18T07:01:50.246Z,57.90
2023-04-18T07:04:44.637Z,58.50
2023-04-18T07:07:39.055Z,58.40
2023-04-18T07:10:33.628Z,58.50
2023-04-18T07:13:27.765Z,58.60
2023-04-18T07:16:22.670Z,59.10
2023-04-18T07:19:16.811Z,59.30
2023-04-18T07:22:11.252Z,59.40
2023-04-18T07:25:05.688Z,60.20
2023-04-18T07:28:00.120Z,61.00
2023-04-18T07:30:54.490Z,62.20
2023-04-18T07:33:48.860Z,63.60
2023-04-18T07:36:43.472Z,64.20
2023-04-18T07:39:37.687Z,65.80
2023-04-18T07:42:31.873Z,66.80
2023-04-18T07:45:26.064Z,67.70
2023-04-18T07:48:23.126Z,68.20
2023-04-18T07:51:17.493Z,69.80
2023-04-18T07:54:12.365Z,70.70
2023-04-18T07:57:06.749Z,71.70
2023-04-18T08:00:01.050Z,72.80
2023-04-18T08:02:55.478Z,73.70
2023-04-18T08:05:50.291Z,74.50
2023-04-18T08:08:44.848Z,74.90
2023-04-18T08:11:40.154Z,76.50
2023-04-18T08:14:34.498Z,79.30
2023-04-18T08:17:28.691Z,80.40
2023-04-18T08:20:23.204Z,81.10
2023-04-18T08:23:17.400Z,81.60
2023-04-18T08:26:11.641Z,82.40
2023-04-18T08:29:05.772Z,83.50
2023-04-18T08:32:00.304Z,84.70
2023-04-18T08:34:54.575Z,86.30
2023-04-18T08:37:48.865Z,87.90
2023-04-18T08:40:44.540Z,87.80
2023-04-18T08:43:39.921Z,88.10
2023-04-18T08:46:38.413Z,89.10
2023-04-18T08:49:33.308Z,89.30
2023-04-18T08:52:30.800Z,89.60
2023-04-18T08:55:25.087Z,89.50
2023-04-18T08:58:26.705Z,90.00
2023-04-18T09:01:21.050Z,90.10
2023-04-18T09:04:42.139Z,90.40
2023-04-18T09:07:36.353Z,90.60
2023-04-18T09:10:35.739Z,90.90
2023-04-18T09:13:42.329Z,91.10
2023-04-18T09:16:51.625Z,90.90
2023-04-18T09:19:55.624Z,90.70
2023-04-18T09:22:52.511Z,90.40
2023-04-18T09:25:49.342Z,90.30
2023-04-18T09:28:43.600Z,90.30
2023-04-18T09:31:52.718Z,90.30
2023-04-18T09:34:47.921Z,90.20
2023-04-18T09:37:52.657Z,90.40
2023-04-18T09:40:46.907Z,90.30
2023-04-18T09:43:42.187Z,90.20
2023-04-18T09:46:36.551Z,90.20
2023-04-18T09:49:31.278Z,90.20
2023-04-18T09:52:29.835Z,90.10
2023-04-18T09:55:24.431Z,90.20
2023-04-18T09:58:23.385Z,90.60
2023-04-18T10:01:18.043Z,90.80
2023-04-18T10:04:15.555Z,90.80
2023-04-18T10:07:10.238Z,91.00
2023-04-18T10:10:04.566Z,91.00
2023-04-18T10:13:01.676Z,91.10
2023-04-18T10:15:56.470Z,91.10
2023-04-18T10:18:52.516Z,91.40
2023-04-18T10:22:00.312Z,91.40
2023-04-18T10:24:57.401Z,91.50
2023-04-18T10:27:51.683Z,93.10
2023-04-18T10:30:48.962Z,95.70
2023-04-18T10:34:00.789Z,96.60
2023-04-18T10:37:08.624Z,98.00
2023-04-18T10:40:10.880Z,98.80
2023-04-18T10:43:05.575Z,99.60
2023-04-18T10:46:27.935Z,99.90
2023-04-18T10:49:30.285Z,99.90
2023-04-18T10:52:26.686Z,99.90
2023-04-18T10:55:30.342Z,99.90
2023-04-18T10:58:24.891Z,99.90
2023-04-18T11:01:33.941Z,99.90
2023-04-18T11:04:28.496Z,99.90
2023-04-18T11:07:37.749Z,99.90
2023-04-18T11:10:32.022Z,99.90
2023-04-18T11:13:26.396Z,99.90
2023-04-18T11:16:33.749Z,99.90
2023-04-18T11:19:28.290Z,99.90
2023-04-18T11:22:22.444Z,99.90
2023-04-18T11:25:18.187Z,99.90
2023-04-18T11:28:16.012Z,99.90
2023-04-18T11:31:10.322Z,99.90
2023-04-18T11:34:04.565Z,99.90
2023-04-18T11:36:59.089Z,99.90
2023-04-18T11:39:55.332Z,99.90
2023-04-18T11:42:49.572Z,99.90
2023-04-18T11:45:59.705Z,99.90
2023-04-18T11:48:54.094Z,99.90
2023-04-18T11:51:49.237Z,99.90
2023-04-18T11:54:45.326Z,99.90
2023-04-18T11:57:39.556Z,99.90
2023-04-18T12:00:39.848Z,99.90
2023-04-18T12:03:34.292Z,99.90
2023-04-18T12:06:30.846Z,99.90
2023-04-18T12:09:27.284Z,99.90
2023-04-18T12:12:21.654Z,99.90
2023-04-18T12:15:18.051Z,99.90
2023-04-18T12:18:14.894Z,99.90
2023-04-18T12:21:10.006Z,99.90
2023-04-18T12:24:17.032Z,99.90
2023-04-18T12:27:13.180Z,99.90
2023-04-18T12:30:08.534Z,99.90
2023-04-18T12:33:06.490Z,99.90
2023-04-18T12:36:01.533Z,99.90
2023-04-18T12:38:55.736Z,99.90
2023-04-18T12:41:50.144Z,99.90
2023-04-18T12:44:45.372Z,99.90
2023-04-18T12:47:42.662Z,99.90
2023-04-18T12:50:37.063Z,99.90
2023-04-18T12:53:31.479Z,99.90
2023-04-18T12:56:25.862Z,99.90
2023-04-18T12:59:20.284Z,99.90
2023-04-18T13:02:14.572Z,99.90
2023-04-18T13:05:10.592Z,99.90
2023-04-18T13:08:16.380Z,99.90
2023-04-18T13:11:12.098Z,99.90
2023-04-18T13:14:06.440Z,99.90
2023-04-18T13:17:00.863Z,99.90
2023-04-18T13:19:55.111Z,99.90
2023-04-18T13:22:49.374Z,99.90
2023-04-18T13:25:43.466Z,99.90
2023-04-18T13:28:37.588Z,99.90
2023-04-18T13:31:32.706Z,99.90
2023-04-18T13:34:26.861Z,99.90
2023-04-18T13:37:21.142Z,99.90
2023-04-18T13:40:15.406Z,99.90
2023-04-18T13:43:12.046Z,99.90
2023-04-18T13:46:06.857Z,99.90
2023-04-18T13:49:01.019Z,99.90
2023-04-18T13:51:58.232Z,99.90
2023-04-18T13:54:52.439Z,99.90
2023-04-18T13:57:47.322Z,99.90
2023-04-18T14:00:41.653Z,99.90
2023-04-18T14:03:37.898Z,99.90
2023-04-18T14:06:33.756Z,99.90
2023-04-18T14:09:28.944Z,99.90
2023-04-18T14:12:23.539Z,99.90
2023-04-18T14:15:18.202Z,99.90
2023-04-18T14:18:12.338Z,99.90
2023-04-18T14:21:07.516Z,99.90
2023-04-18T14:24:01.710Z,99.90
2023-04-18T14:26:56.269Z,99.90
2023-04-18T14:29:50.572Z,99.90
2023-04-18T14:32:44.758Z,99.90
2023-04-18T14:35:39.070Z,99.90
2023-04-18T14:38:33.489Z,99.90
2023-04-18T14:41:28.023Z,99.90
2023-04-18T14:44:22.514Z,99.90
2023-04-18T14:47:17.077Z,99.90
2023-04-18T14:50:16.581Z,99.90
2023-04-18T14:53:10.766Z,99.90
2023-04-18T14:56:05.071Z,99.90
2023-04-18T14:58:59.572Z,99.90
2023-04-18T15:01:53.774Z,99.90
2023-04-18T15:04:48.302Z,99.90
2023-04-18T15:07:44.151Z,99.90
2023-04-18T15:10:39.041Z,99.90
2023-04-18T15:13:33.166Z,99.90
2023-04-18T15:16:27.608Z,99.90
2023-04-18T15:19:21.869Z,99.90
2023-04-18T15:22:16.127Z,99.90
2023-04-18T15:25:10.747Z,99.90
2023-04-18T15:28:04.927Z,99.90
2023-04-18T15:30:59.164Z,99.90
2023-04-18T15:33:53.280Z,99.90
2023-04-18T15:36:50.307Z,99.90
2023-04-18T15:39:44.403Z,99.90
2023-04-18T15:42:38.598Z,99.90
2023-04-18T15:45:32.921Z,99.90
2023-04-18T15:48:27.117Z,99.90
2023-04-18T15:51:21.446Z,99.90
2023-04-18T15:54:15.944Z,99.90
2023-04-18T15:57:11.037Z,99.90
2023-04-18T16:00:07.770Z,99.90
2023-04-18T16:03:02.031Z,99.90
2023-04-18T16:05:56.557Z,99.90
2023-04-18T16:08:51.065Z,99.90
2023-04-18T16:11:45.424Z,99.90
2023-04-18T16:14:39.536Z,99.90
2023-04-18T16:17:33.998Z,99.90
2023-04-18T16:20:28.495Z,99.90
2023-04-18T16:23:22.947Z,99.90
2023-04-18T16:26:17.090Z,99.90
2023-04-18T16:29:11.343Z,99.90
2023-04-18T16:32:07.759Z,99.90
2023-04-18T16:35:01.956Z,99.90
2023-04-18T16:37:56.077Z,99.90
2023-04-18T16:40:50.329Z,99.90
2023-04-18T16:43:44.473Z,99.90
2023-04-18T16:46:38.687Z,99.90
2023-04-18T16:49:32.864Z,99.90
2023-04-18T16:52:27.218Z,99.90
2023-04-18T16:55:21.460Z,99.90
2023-04-18T16:58:15.650Z,99.90
2023-04-18T17:01:09.740Z,99.90
2023-04-18T17:04:04.470Z,99.90
2023-04-18T17:06:58.700Z,99.90
2023-04-18T17:09:53.177Z,99.90
2023-04-18T17:12:50.312Z,99.90
2023-04-18T17:15:44.496Z,99.90
2023-04-18T17:18:38.680Z,99.90
2023-04-18T17:21:33.752Z,99.90
2023-04-18T17:24:28.300Z,99.90
2023-04-18T17:27:22.470Z,99.90
2023-04-18T17:30:16.718Z,99.90
2023-04-18T17:33:12.166Z,99.90
2023-04-18T17:36:07.753Z,99.90
2023-04-18T17:39:07.620Z,99.90
2023-04-18T17:42:03.285Z,99.90
2023-04-18T17:44:57.505Z,99.90
2023-04-18T17:47:52.067Z,99.90
2023-04-18T17:50:46.422Z,99.90
2023-04-18T17:53:40.600Z,99.90
2023-04-18T17:56:35.053Z,99.90
2023-04-18T17:59:29.539Z,99.90
2023-04-18T18:02:24.823Z,99.90
2023-04-18T18:05:19.046Z,99.90
2023-04-18T18:08:13.299Z,99.90
2023-04-18T18:11:07.521Z,99.90
2023-04-18T18:14:02.134Z,99.90
2023-04-18T18:16:56.644Z,99.90
2023-04-18T18:19:50.822Z,99.90
2023-04-18T18:22:45.640Z,99.90
2023-04-18T18:25:39.972Z,99.90
2023-04-18T18:28:34.566Z,99.90
2023-04-18T18:31:28.811Z,99.90
2023-04-18T18:34:23.158Z,99.90
2023-04-18T18:37:17.610Z,99.90
2023-04-18T18:40:12.206Z,99.90
2023-04-18T18:43:08.721Z,99.90
2023-04-18T18:46:02.973Z,99.90
2023-04-18T18:48:57.639Z,99.90
2023-04-18T18:51:51.760Z,99.90
2023-04-18T18:54:45.902Z,99.90
2023-04-18T18:57:40.124Z,99.90
2023-04-18T19:00:34.449Z,99.90
2023-04-18T19:03:29.874Z,99.90
2023-04-18T19:06:24.301Z,99.90
2023-04-18T19:09:21.487Z,99.90
2023-04-18T19:12:15.678Z,99.90
2023-04-18T19:15:10.619Z,99.90
2023-04-18T19:18:04.799Z,99.90
2023-04-18T19:20:58.946Z,99.90
2023-04-18T19:23:53.083Z,99.90
2023-04-18T19:26:47.216Z,99.90
2023-04-18T19:29:41.886Z,99.90
2023-04-18T19:32:36.121Z,99.90
2023-04-18T19:35:30.371Z,99.90
2023-04-18T19:38:24.975Z,99.90
2023-04-18T19:41:19.142Z,99.90
2023-04-18T19:44:13.256Z,99.90
2023-04-18T19:47:07.864Z,99.90
2023-04-18T19:50:02.857Z,99.90
2023-04-18T19:52:57.074Z,99.90
2023-04-18T19:55:51.176Z,99.90
2023-04-18T19:58:47.955Z,99.90
2023-04-18T20:01:42.211Z,99.90
2023-04-18T20:04:37.671Z,99.90
2023-04-18T20:07:32.377Z,99.90
2023-04-18T20:10:26.628Z,99.90
2023-04-18T20:13:20.809Z,99.90
2023-04-18T20:16:15.083Z,99.90
2023-04-18T20:22:06.217Z,99.90
2023-04-18T20:25:00.934Z,99.90
2023-04-18T20:27:55.061Z,99.90
2023-04-18T20:30:49.341Z,99.90
2023-04-18T20:33:43.604Z,99.90
2023-04-18T20:36:42.561Z,99.90
2023-04-18T20:39:38.127Z,99.90
2023-04-18T20:42:33.521Z,99.90
2023-04-18T20:45:28.990Z,99.90
2023-04-18T20:48:23.310Z,99.90
2023-04-18T20:51:17.472Z,99.90
2023-04-18T20:54:12.362Z,99.90
2023-04-18T20:57:06.645Z,99.90
2023-04-18T21:00:00.955Z,99.90
2023-04-18T21:02:55.534Z,99.90
2023-04-18T21:05:49.822Z,99.90
2023-04-18T21:08:43.985Z,99.90
2023-04-18T21:11:38.128Z,99.90
2023-04-18T21:14:32.448Z,99.90
2023-04-18T21:17:27.166Z,99.90
2023-04-18T21:20:21.731Z,99.90
2023-04-18T21:23:15.908Z,99.90
2023-04-18T21:26:12.220Z,99.90
2023-04-18T21:29:06.958Z,99.90
2023-04-18T21:32:01.153Z,99.90
2023-04-18T21:34:57.499Z,99.90
2023-04-18T21:37:51.676Z,99.90
2023-04-18T21:40:45.778Z,99.90
2023-04-18T21:43:39.931Z,99.90
2023-04-18T21:46:34.092Z,99.90
2023-04-18T21:49:28.374Z,99.90
2023-04-18T21:52:22.514Z,99.90
2023-04-18T21:55:16.637Z,99.90
2023-04-18T21:58:10.796Z,99.90
2023-04-18T22:01:05.353Z,99.90
2023-04-18T22:03:59.597Z,99.90
2023-04-18T22:06:56.980Z,99.90
2023-04-18T22:09:52.285Z,99.90
2023-04-18T22:12:46.922Z,99.90
2023-04-18T22:15:41.089Z,99.90
2023-04-18T22:18:36.930Z,99.90
2023-04-18T22:21:32.577Z,99.90
2023-04-18T22:24:29.338Z,99.90
2023-04-18T22:27:23.468Z,99.90
2023-04-18T22:30:17.701Z,99.90
2023-04-18T22:33:11.828Z,99.90
2023-04-18T22:36:06.286Z,99.90
2023-04-18T22:39:00.451Z,99.90
2023-04-18T22:41:54.629Z,99.90
2023-04-18T22:44:48.769Z,99.90
2023-04-18T22:47:42.913Z,99.90
2023-04-18T22:50:38.958Z,99.90
2023-04-18T22:53:33.264Z,99.10
2023-04-18T22:56:27.595Z,98.90
2023-04-18T22:59:22.140Z,99.00
2023-04-18T23:02:16.776Z,99.30
2023-04-18T23:05:12.037Z,99.50
2023-04-18T23:08:07.955Z,99.60
2023-04-18T23:11:02.123Z,99.80
2023-04-18T23:13:56.279Z,99.90
2023-04-18T23:16:50.553Z,99.70
2023-04-18T23:19:46.345Z,99.40
2023-04-18T23:22:40.475Z,99.30
2023-04-18T23:25:35.079Z,99.10
2023-04-18T23:28:29.378Z,98.70
2023-04-18T23:31:24.289Z,98.60
2023-04-18T23:34:18.437Z,98.20
2023-04-18T23:37:12.647Z,98.00
2023-04-18T23:40:07.800Z,98.00
2023-04-18T23:43:02.569Z,97.80
2023-04-18T23:45:56.882Z,96.90
2023-04-18T23:48:51.036Z,96.20
2023-04-18T23:51:45.225Z,94.80
2023-04-18T23:54:39.381Z,94.80
2023-04-18T23:57:33.571Z,94.50
